createdAt,value
2018-03-17T00:01:50.419Z,4.30
2018-03-17T00:04:20.987Z,4.50
2018-03-17T00:06:52.286Z,4.50
2018-03-17T00:09:23.877Z,4.60
2018-03-17T00:11:59.551Z,4.60
2018-03-17T00:14:30.739Z,4.50
2018-03-17T00:17:01.525Z,4.50
2018-03-17T00:19:31.714Z,4.50
2018-03-17T00:22:02.764Z,4.50
2018-03-17T00:24:33.296Z,4.40
2018-03-17T00:27:04.221Z,4.40
2018-03-17T00:29:34.677Z,4.40
2018-03-17T00:32:04.862Z,4.30
2018-03-17T00:34:35.349Z,4.30
2018-03-17T00:37:06.190Z,4.20
2018-03-17T00:39:37.121Z,4.20
2018-03-17T00:42:08.001Z,4.20
2018-03-17T00:44:38.901Z,4.30
2018-03-17T00:47:09.443Z,4.20
2018-03-17T00:49:40.190Z,4.20
2018-03-17T00:52:11.346Z,4.30
2018-03-17T00:54:42.458Z,4.20
2018-03-17T00:57:13.570Z,4.10
2018-03-17T00:59:44.564Z,4.10
2018-03-17T01:02:15.463Z,4.00
2018-03-17T01:04:46.720Z,4.00
2018-03-17T01:07:17.742Z,3.80
2018-03-17T01:09:48.604Z,3.60
2018-03-17T01:12:19.639Z,3.70
2018-03-17T01:14:50.549Z,3.80
2018-03-17T01:17:21.433Z,3.90
2018-03-17T01:19:57.124Z,4.00
2018-03-17T01:22:28.896Z,4.00
2018-03-17T01:25:00.086Z,4.00
2018-03-17T01:27:32.108Z,4.00
2018-03-17T01:30:02.469Z,4.00
2018-03-17T01:32:32.913Z,4.00
2018-03-17T01:35:03.727Z,4.00
2018-03-17T01:37:35.471Z,4.00
2018-03-17T01:40:07.835Z,3.90
2018-03-17T01:42:39.098Z,3.90
2018-03-17T01:45:09.525Z,3.90
2018-03-17T01:47:40.122Z,3.80
2018-03-17T01:50:10.463Z,3.90
2018-03-17T01:52:42.042Z,3.70
2018-03-17T01:55:13.039Z,3.70
2018-03-17T01:57:43.942Z,3.80
2018-03-17T02:00:16.617Z,3.80
2018-03-17T02:02:47.439Z,3.80
2018-03-17T02:05:18.412Z,3.70
2018-03-17T02:07:49.620Z,3.50
2018-03-17T02:10:19.779Z,3.50
2018-03-17T02:12:49.974Z,3.30
2018-03-17T02:15:20.772Z,3.60
2018-03-17T02:17:51.277Z,3.80
2018-03-17T02:20:21.663Z,3.90
2018-03-17T02:22:52.268Z,4.00
2018-03-17T02:25:23.200Z,3.90
2018-03-17T02:27:54.115Z,3.90
2018-03-17T02:30:25.973Z,3.80
2018-03-17T02:32:56.236Z,3.80
2018-03-17T02:35:27.565Z,3.80
2018-03-17T02:37:58.155Z,3.90
2018-03-17T02:40:29.611Z,4.00
2018-03-17T02:43:01.170Z,4.00
2018-03-17T02:45:33.566Z,3.90
2018-03-17T02:48:04.599Z,3.90
2018-03-17T02:50:35.329Z,3.90
2018-03-17T02:53:07.540Z,3.90
2018-03-17T02:55:37.930Z,3.90
2018-03-17T02:58:09.131Z,3.90
2018-03-17T03:00:39.596Z,3.90
2018-03-17T03:03:10.783Z,3.90
2018-03-17T03:05:41.282Z,3.90
2018-03-17T03:08:11.966Z,3.80
2018-03-17T03:10:42.436Z,3.80
2018-03-17T03:13:12.968Z,3.80
2018-03-17T03:15:43.191Z,3.70
2018-03-17T03:18:14.484Z,3.80
2018-03-17T03:20:45.069Z,3.70
2018-03-17T03:23:15.899Z,3.80
2018-03-17T03:25:46.271Z,3.80
2018-03-17T03:28:16.958Z,3.80
2018-03-17T03:30:47.893Z,3.80
2018-03-17T03:33:18.872Z,3.80
2018-03-17T03:35:49.670Z,3.80
2018-03-17T03:38:20.626Z,3.80
2018-03-17T03:40:51.438Z,3.70
2018-03-17T03:43:22.242Z,3.60
2018-03-17T03:45:54.109Z,3.70
2018-03-17T03:48:24.633Z,3.70
2018-03-17T03:50:55.619Z,3.90
2018-03-17T03:53:26.092Z,3.80
2018-03-17T03:55:56.503Z,3.80
2018-03-17T03:58:27.055Z,3.90
2018-03-17T04:00:57.544Z,3.90
2018-03-17T04:03:28.704Z,3.90
2018-03-17T04:06:00.984Z,3.90
2018-03-17T04:08:32.977Z,3.80
2018-03-17T04:11:04.183Z,3.60
2018-03-17T04:13:34.804Z,3.50
2018-03-17T04:16:05.401Z,3.20
2018-03-17T04:18:35.815Z,3.10
2018-03-17T04:21:06.600Z,3.20
2018-03-17T04:23:37.333Z,3.40
2018-03-17T04:26:07.855Z,3.60
2018-03-17T04:28:38.860Z,3.70
2018-03-17T04:31:09.558Z,3.60
2018-03-17T04:33:40.224Z,3.60
2018-03-17T04:36:11.327Z,3.60
2018-03-17T04:38:41.679Z,3.70
2018-03-17T04:41:11.993Z,3.90
2018-03-17T04:43:42.589Z,4.00
2018-03-17T04:46:13.056Z,4.00
2018-03-17T04:48:51.913Z,4.00
2018-03-17T04:51:23.145Z,4.00
2018-03-17T04:53:54.413Z,3.80
2018-03-17T04:56:29.964Z,3.80
2018-03-17T04:59:02.571Z,3.80
2018-03-17T05:01:33.482Z,3.70
2018-03-17T05:04:04.676Z,3.70
2018-03-17T05:06:35.977Z,3.60
2018-03-17T05:09:07.116Z,3.40
2018-03-17T05:11:37.769Z,3.60
2018-03-17T05:14:08.258Z,3.50
2018-03-17T05:16:38.418Z,3.20
2018-03-17T05:19:09.271Z,3.10
2018-03-17T05:21:39.707Z,3.10
2018-03-17T05:24:10.167Z,3.10
2018-03-17T05:26:44.138Z,3.40
2018-03-17T05:29:16.039Z,3.40
2018-03-17T05:31:46.492Z,3.60
2018-03-17T05:34:17.035Z,3.50
2018-03-17T05:36:48.132Z,3.60
2018-03-17T05:39:19.106Z,3.60
2018-03-17T05:41:49.301Z,3.20
2018-03-17T05:44:19.406Z,3.20
2018-03-17T05:46:49.934Z,3.10
2018-03-17T05:49:23.381Z,3.50
2018-03-17T05:51:57.009Z,3.50
2018-03-17T05:54:27.179Z,3.50
2018-03-17T05:56:58.475Z,3.70
2018-03-17T05:59:36.262Z,3.70
2018-03-17T06:02:06.733Z,3.70
2018-03-17T06:04:37.570Z,3.90
2018-03-17T06:07:07.864Z,4.00
2018-03-17T06:09:46.807Z,4.20
2018-03-17T06:12:17.414Z,4.20
2018-03-17T06:18:24.151Z,4.10
2018-03-17T06:20:54.541Z,4.00
2018-03-17T06:23:24.750Z,4.10
2018-03-17T06:25:55.175Z,4.10
2018-03-17T06:28:25.679Z,4.10
2018-03-17T06:30:55.827Z,4.20
2018-03-17T06:33:26.306Z,4.10
2018-03-17T06:35:57.583Z,4.20
2018-03-17T06:38:27.742Z,4.20
2018-03-17T06:40:58.235Z,4.40
2018-03-17T06:43:29.357Z,4.80
2018-03-17T06:45:59.887Z,4.80
2018-03-17T06:48:30.073Z,4.80
2018-03-17T06:51:01.190Z,4.90
2018-03-17T06:53:31.452Z,5.00
2018-03-17T06:56:01.951Z,5.20
2018-03-17T06:58:32.723Z,5.10
2018-03-17T07:01:03.940Z,5.50
2018-03-17T07:03:35.413Z,4.90
2018-03-17T07:06:06.532Z,5.00
2018-03-17T07:08:37.715Z,4.90
2018-03-17T07:11:08.095Z,4.90
2018-03-17T07:13:38.671Z,5.50
2018-03-17T07:16:09.914Z,5.90
2018-03-17T07:18:43.767Z,6.20
2018-03-17T07:21:17.359Z,5.90
2018-03-17T07:23:53.750Z,6.30
2018-03-17T07:26:27.056Z,6.40
2018-03-17T07:29:09.463Z,6.70
2018-03-17T07:32:01.186Z,7.00
2018-03-17T07:34:31.754Z,7.20
2018-03-17T07:37:02.146Z,7.60
2018-03-17T07:39:35.902Z,7.80
2018-03-17T07:42:08.502Z,8.00
2018-03-17T07:44:39.513Z,8.20
2018-03-17T07:47:10.101Z,8.40
2018-03-17T07:49:42.419Z,8.40
2018-03-17T07:52:15.011Z,8.40
2018-03-17T07:54:45.958Z,8.40
2018-03-17T07:57:16.695Z,8.10
2018-03-17T07:59:47.954Z,7.60
2018-03-17T08:02:18.599Z,7.70
2018-03-17T08:04:49.751Z,7.60
2018-03-17T08:07:20.078Z,7.60
2018-03-17T08:09:53.915Z,8.40
2018-03-17T08:12:25.548Z,8.50
2018-03-17T08:14:56.081Z,9.30
2018-03-17T08:17:26.655Z,9.90
2018-03-17T08:19:58.421Z,9.50
2018-03-17T08:22:30.065Z,8.90
2018-03-17T08:25:02.652Z,8.20
2018-03-17T08:27:35.395Z,8.20
2018-03-17T08:30:08.710Z,9.60
2018-03-17T08:32:43.462Z,9.60
2018-03-17T08:35:15.106Z,11.90
2018-03-17T08:37:46.811Z,13.00
2018-03-17T08:40:17.627Z,13.90
2018-03-17T08:42:49.469Z,11.60
2018-03-17T08:45:19.946Z,11.60
2018-03-17T08:47:50.831Z,9.70
2018-03-17T08:50:22.083Z,12.00
2018-03-17T08:52:54.059Z,10.60
2018-03-17T08:55:25.583Z,8.80
2018-03-17T08:57:58.060Z,7.30
2018-03-17T09:00:28.547Z,7.20
2018-03-17T09:03:01.802Z,8.70
2018-03-17T09:05:35.454Z,9.70
2018-03-17T09:08:15.442Z,9.90
2018-03-17T09:10:46.940Z,9.50
2018-03-17T09:13:17.786Z,9.50
2018-03-17T09:15:50.413Z,8.20
2018-03-17T09:18:21.110Z,7.80
2018-03-17T09:20:52.853Z,8.80
2018-03-17T09:23:25.016Z,9.60
2018-03-17T09:25:57.736Z,9.50
2018-03-17T09:28:29.751Z,9.30
2018-03-17T09:31:03.385Z,8.70
2018-03-17T09:33:34.640Z,9.30
2018-03-17T09:36:07.995Z,9.40
2018-03-17T09:38:45.910Z,9.60
2018-03-17T09:41:19.104Z,9.40
2018-03-17T09:43:49.689Z,9.40
2018-03-17T09:46:20.326Z,9.20
2018-03-17T09:48:54.470Z,9.30
2018-03-17T09:51:25.238Z,9.10
2018-03-17T09:54:05.907Z,9.40
2018-03-17T09:56:42.654Z,9.40
2018-03-17T09:59:20.047Z,9.30
2018-03-17T10:01:51.509Z,9.00
2018-03-17T10:04:22.548Z,9.00
2018-03-17T10:06:53.964Z,8.60
2018-03-17T10:09:24.812Z,8.70
2018-03-17T10:11:57.098Z,8.50
2018-03-17T10:14:30.160Z,8.60
2018-03-17T10:17:08.610Z,8.20
2018-03-17T10:19:41.341Z,7.90
2018-03-17T10:22:15.143Z,8.00
2018-03-17T10:24:48.751Z,7.90
2018-03-17T10:27:26.452Z,8.30
2018-03-17T10:29:58.462Z,8.80
2018-03-17T10:32:33.614Z,8.60
2018-03-17T10:35:17.334Z,8.60
2018-03-17T10:37:49.195Z,8.00
2018-03-17T10:40:50.658Z,8.00
2018-03-17T10:43:24.214Z,8.40
2018-03-17T10:45:57.221Z,8.40
2018-03-17T10:48:31.894Z,8.70
2018-03-17T10:51:03.786Z,8.70
2018-03-17T10:53:36.295Z,8.50
2018-03-17T10:56:07.864Z,8.50
2018-03-17T10:58:38.944Z,8.40
2018-03-17T11:01:15.034Z,8.60
2018-03-17T11:03:48.465Z,8.20
2018-03-17T11:06:21.462Z,8.10
2018-03-17T11:08:57.178Z,8.70
2018-03-17T11:11:28.416Z,8.50
2018-03-17T11:17:36.095Z,8.30
2018-03-17T11:20:06.980Z,7.40
2018-03-17T11:22:43.215Z,7.30
2018-03-17T11:25:13.549Z,7.20
2018-03-17T11:27:45.020Z,7.00
2018-03-17T11:30:26.912Z,7.00
2018-03-17T11:33:23.582Z,7.00
2018-03-17T11:36:05.507Z,6.90
2018-03-17T11:38:38.264Z,6.60
2018-03-17T11:41:08.964Z,6.60
2018-03-17T11:44:02.071Z,6.80
2018-03-17T11:46:35.004Z,6.80
2018-03-17T11:49:12.292Z,6.60
2018-03-17T11:51:47.278Z,6.60
2018-03-17T11:54:18.266Z,6.80
2018-03-17T11:56:49.249Z,6.80
2018-03-17T11:59:20.674Z,6.90
2018-03-17T12:01:52.195Z,6.60
2018-03-17T12:04:27.538Z,6.60
2018-03-17T12:07:01.324Z,6.60
2018-03-17T12:09:43.203Z,6.70
2018-03-17T12:14:58.348Z,6.70
2018-03-17T12:17:42.271Z,6.90
2018-03-17T12:20:16.374Z,6.90
2018-03-17T12:22:53.287Z,6.80
2018-03-17T12:25:25.591Z,6.80
2018-03-17T12:28:10.621Z,6.80
2018-03-17T12:30:42.213Z,6.90
2018-03-17T12:33:13.984Z,7.10
2018-03-17T12:35:45.995Z,7.30
2018-03-17T12:38:17.070Z,7.40
2018-03-17T12:40:47.553Z,7.50
2018-03-17T12:43:19.571Z,7.30
2018-03-17T12:46:06.714Z,6.60
2018-03-17T12:48:43.301Z,6.60
2018-03-17T12:51:15.528Z,6.80
2018-03-17T12:53:47.703Z,6.80
2018-03-17T12:56:24.543Z,6.80
2018-03-17T12:59:17.205Z,6.80
2018-03-17T13:01:48.839Z,6.90
2018-03-17T13:04:23.661Z,6.80
2018-03-17T13:06:56.614Z,6.70
2018-03-17T13:09:27.571Z,6.90
2018-03-17T13:12:41.864Z,7.00
2018-03-17T13:15:14.077Z,6.80
2018-03-17T13:17:44.864Z,6.90
2018-03-17T13:20:16.175Z,6.50
2018-03-17T13:22:55.104Z,6.50
2018-03-17T13:25:28.192Z,6.40
2018-03-17T13:29:02.111Z,6.40
2018-03-17T13:32:05.267Z,6.60
2018-03-17T13:35:04.177Z,6.70
2018-03-17T13:37:48.404Z,6.70
2018-03-17T13:40:29.446Z,6.80
2018-03-17T13:43:01.629Z,6.60
2018-03-17T13:45:33.041Z,6.50
2018-03-17T13:48:09.294Z,6.50
2018-03-17T13:51:00.346Z,6.30
2018-03-17T13:53:57.067Z,6.30
2018-03-17T13:56:40.498Z,6.30
2018-03-17T13:59:13.920Z,6.30
2018-03-17T14:01:51.617Z,6.10
2018-03-17T14:04:27.100Z,6.20
2018-03-17T14:07:02.023Z,6.20
2018-03-17T14:09:33.856Z,5.90
2018-03-17T14:12:05.282Z,5.90
2018-03-17T14:15:31.517Z,6.30
2018-03-17T14:18:14.121Z,6.10
2018-03-17T14:20:45.056Z,6.10
2018-03-17T14:23:16.210Z,5.90
2018-03-17T14:25:47.820Z,5.60
2018-03-17T14:28:19.037Z,5.50
2018-03-17T14:30:52.433Z,5.60
2018-03-17T14:33:59.854Z,5.20
2018-03-17T14:36:31.424Z,5.40
2018-03-17T14:39:08.434Z,5.30
2018-03-17T14:41:39.531Z,5.20
2018-03-17T14:45:29.726Z,5.10
2018-03-17T14:48:02.019Z,4.90
2018-03-17T14:50:38.722Z,4.80
2018-03-17T14:53:11.192Z,4.80
2018-03-17T14:55:43.257Z,4.90
2018-03-17T14:58:15.427Z,4.80
2018-03-17T15:00:49.896Z,4.70
2018-03-17T15:03:21.966Z,4.50
2018-03-17T15:06:03.234Z,4.50
2018-03-17T15:08:48.486Z,4.60
2018-03-17T15:11:52.077Z,4.60
2018-03-17T15:14:47.037Z,4.60
2018-03-17T15:17:31.606Z,4.50
2018-03-17T15:20:07.236Z,4.30
2018-03-17T15:22:44.757Z,4.20
2018-03-17T15:25:36.181Z,4.20
2018-03-17T15:28:11.184Z,4.20
2018-03-17T15:30:46.476Z,4.00
2018-03-17T15:33:20.056Z,4.00
2018-03-17T15:35:56.822Z,3.80
2018-03-17T15:38:33.761Z,4.00
2018-03-17T15:41:08.936Z,3.90
2018-03-17T15:43:44.737Z,3.90
2018-03-17T15:46:18.091Z,4.00
2018-03-17T15:49:09.676Z,4.00
2018-03-17T15:51:50.144Z,3.90
2018-03-17T15:54:23.113Z,4.00
2018-03-17T15:56:55.893Z,4.00
2018-03-17T15:59:31.601Z,3.90
2018-03-17T16:02:12.195Z,3.90
2018-03-17T16:04:48.179Z,4.00
2018-03-17T16:07:19.868Z,3.90
2018-03-17T16:09:51.263Z,3.90
2018-03-17T16:12:21.608Z,3.80
2018-03-17T16:14:57.547Z,3.70
2018-03-17T16:17:34.537Z,3.80
2018-03-17T16:20:27.263Z,3.90
2018-03-17T16:23:20.464Z,3.80
2018-03-17T16:26:19.521Z,3.70
2018-03-17T16:28:51.402Z,3.70
2018-03-17T16:31:23.929Z,3.60
2018-03-17T16:34:16.578Z,3.60
2018-03-17T16:36:49.991Z,3.60
2018-03-17T16:51:22.337Z,3.50
2018-03-17T16:53:53.779Z,3.50
2018-03-17T16:56:25.550Z,3.50
2018-03-17T16:58:56.125Z,3.40
2018-03-17T17:01:26.428Z,3.40
2018-03-17T17:03:57.553Z,3.60
2018-03-17T17:06:28.610Z,3.50
2018-03-17T17:08:58.884Z,3.40
2018-03-17T17:11:31.730Z,3.40
2018-03-17T17:14:02.846Z,3.40
2018-03-17T17:16:34.493Z,3.40
2018-03-17T17:19:11.150Z,3.40
2018-03-17T17:21:42.059Z,3.40
2018-03-17T17:24:13.430Z,3.40
2018-03-17T17:26:44.820Z,3.30
2018-03-17T17:29:16.179Z,3.30
2018-03-17T17:31:47.644Z,3.30
2018-03-17T17:34:19.432Z,3.20
2018-03-17T17:36:50.594Z,3.30
2018-03-17T17:39:21.248Z,3.30
2018-03-17T17:41:55.132Z,3.30
2018-03-17T17:44:38.223Z,3.30
2018-03-17T17:47:17.471Z,3.10
2018-03-17T17:49:58.161Z,3.20
2018-03-17T17:52:36.710Z,3.30
2018-03-17T17:55:16.111Z,3.20
2018-03-17T17:57:48.357Z,3.20
2018-03-17T18:00:38.950Z,3.20
2018-03-17T18:03:11.346Z,3.20
2018-03-17T18:05:42.456Z,3.00
2018-03-17T18:08:14.181Z,3.00
2018-03-17T18:10:47.078Z,3.00
2018-03-17T18:13:29.076Z,3.00
2018-03-17T18:16:00.627Z,3.00
2018-03-17T18:18:31.982Z,2.90
2018-03-17T18:21:44.224Z,2.90
2018-03-17T18:24:17.171Z,2.80
2018-03-17T18:26:49.299Z,2.80
2018-03-17T18:29:21.825Z,2.80
2018-03-17T18:31:52.870Z,2.80
2018-03-17T18:34:24.307Z,2.80
2018-03-17T18:36:55.899Z,2.70
2018-03-17T18:39:27.997Z,2.60
2018-03-17T18:42:00.335Z,2.50
2018-03-17T18:44:31.666Z,2.50
2018-03-17T18:47:08.878Z,2.50
2018-03-17T18:49:42.037Z,2.40
2018-03-17T18:52:12.713Z,2.50
2018-03-17T18:54:45.467Z,2.60
2018-03-17T18:57:18.937Z,2.40
2018-03-17T18:59:50.638Z,2.50
2018-03-17T19:02:25.511Z,2.40
2018-03-17T19:05:00.789Z,2.50
2018-03-17T19:07:32.971Z,2.40
2018-03-17T19:10:05.116Z,2.40
2018-03-17T19:12:37.821Z,2.30
2018-03-17T19:15:09.437Z,2.30
2018-03-17T19:17:40.692Z,2.30
2018-03-17T19:20:11.138Z,2.30
2018-03-17T19:22:46.134Z,2.30
2018-03-17T19:25:18.094Z,2.20
2018-03-17T19:27:48.568Z,2.20
2018-03-17T19:30:18.788Z,2.20
2018-03-17T19:32:51.728Z,2.30
2018-03-17T19:38:16.701Z,2.30
2018-03-17T19:40:47.448Z,2.40
2018-03-17T19:43:18.195Z,2.40
2018-03-17T19:45:49.219Z,2.30
2018-03-17T19:48:19.862Z,2.30
2018-03-17T19:50:50.288Z,2.30
2018-03-17T19:53:21.003Z,2.40
2018-03-17T19:55:51.560Z,2.20
2018-03-17T19:58:22.925Z,2.20
2018-03-17T20:00:54.059Z,2.10
2018-03-17T20:03:25.835Z,2.10
2018-03-17T20:05:57.126Z,2.10
2018-03-17T20:08:29.233Z,2.10
2018-03-17T20:11:24.157Z,2.10
2018-03-17T20:13:56.317Z,2.10
2018-03-17T20:16:26.930Z,2.00
2018-03-17T20:18:58.463Z,2.00
2018-03-17T20:21:30.505Z,2.00
2018-03-17T20:24:04.375Z,2.00
2018-03-17T20:26:35.723Z,2.00
2018-03-17T20:29:08.433Z,1.90
2018-03-17T20:31:43.898Z,1.90
2018-03-17T20:34:18.886Z,1.70
2018-03-17T20:36:52.173Z,1.70
2018-03-17T20:39:22.701Z,1.70
2018-03-17T20:41:52.882Z,1.80
2018-03-17T20:44:25.025Z,1.70
2018-03-17T20:46:55.651Z,1.70
2018-03-17T20:49:26.059Z,1.70
2018-03-17T20:51:57.392Z,1.80
2018-03-17T20:54:32.216Z,1.70
2018-03-17T20:57:03.650Z,1.70
2018-03-17T20:59:35.183Z,1.60
2018-03-17T21:02:06.286Z,1.70
2018-03-17T21:04:37.132Z,1.70
2018-03-17T21:07:08.632Z,1.70
2018-03-17T21:09:43.428Z,1.60
2018-03-17T21:12:16.266Z,1.50
2018-03-17T21:14:46.745Z,1.50
2018-03-17T21:17:17.125Z,1.50
2018-03-17T21:19:48.176Z,1.60
2018-03-17T21:22:20.803Z,1.60
2018-03-17T21:24:53.222Z,1.60
2018-03-17T21:27:26.515Z,1.70
2018-03-17T21:29:59.208Z,1.70
2018-03-17T21:32:35.440Z,1.80
2018-03-17T21:35:15.621Z,1.90
2018-03-17T21:37:47.996Z,1.70
2018-03-17T21:40:29.159Z,1.60
2018-03-17T21:43:00.313Z,1.50
2018-03-17T21:45:31.508Z,1.60
2018-03-17T21:48:02.955Z,1.60
2018-03-17T21:50:34.180Z,1.70
2018-03-17T21:53:07.026Z,1.40
2018-03-17T21:55:39.323Z,1.30
2018-03-17T21:58:11.605Z,1.30
2018-03-17T22:00:42.326Z,1.30
2018-03-17T22:03:12.906Z,1.20
2018-03-17T22:05:43.618Z,1.10
2018-03-17T22:08:13.774Z,1.20
2018-03-17T22:10:44.227Z,1.10
2018-03-17T22:13:16.031Z,1.00
2018-03-17T22:15:46.200Z,1.00
2018-03-17T22:18:17.534Z,1.00
2018-03-17T22:20:51.807Z,0.90
2018-03-17T22:23:22.582Z,0.90
2018-03-17T22:25:53.279Z,1.00
2018-03-17T22:28:25.335Z,1.00
2018-03-17T22:30:56.127Z,1.00
2018-03-17T22:33:26.299Z,1.30
2018-03-17T22:35:57.484Z,1.30
2018-03-17T22:38:28.366Z,1.20
2018-03-17T22:40:59.004Z,1.20
2018-03-17T22:43:29.917Z,1.00
2018-03-17T22:46:01.207Z,1.00
2018-03-17T22:48:31.828Z,1.00
2018-03-17T22:51:02.374Z,1.10
2018-03-17T22:53:32.756Z,1.10
2018-03-17T22:56:03.810Z,1.10
2018-03-17T22:58:33.949Z,1.00
2018-03-17T23:01:05.514Z,1.00
2018-03-17T23:03:37.202Z,1.00
2018-03-17T23:06:07.769Z,1.10
2018-03-17T23:08:39.029Z,1.00
2018-03-17T23:11:09.380Z,1.00
2018-03-17T23:13:39.984Z,0.90
2018-03-17T23:16:10.769Z,1.00
2018-03-17T23:18:41.664Z,0.90
2018-03-17T23:21:13.146Z,1.00
2018-03-17T23:23:44.422Z,1.00
2018-03-17T23:26:17.586Z,1.00
2018-03-17T23:28:48.562Z,0.90
2018-03-17T23:31:19.278Z,0.70
2018-03-17T23:33:49.508Z,0.80
2018-03-17T23:36:20.893Z,0.70
2018-03-17T23:38:52.382Z,0.80
2018-03-17T23:42:07.808Z,0.90
2018-03-17T23:45:02.871Z,0.80
2018-03-17T23:47:36.441Z,0.80
2018-03-17T23:50:07.380Z,0.80
2018-03-17T23:52:38.444Z,0.90
2018-03-17T23:55:09.147Z,0.70
2018-03-17T23:57:56.817Z,0.70
